Time;durP1;ratioP1;P1;durP2;ratioP2;P2;SDS_P1;SDS_P2;PMS_P1;PMS_P2;Temp;Humidity;BMP_temperature;BMP_pressure;BME280_temperature;BME280_humidity;BME280_pressure;Samples;Min_cycle;Max_cycle;Signal;HPM_P1;HPM_P2
2023/02/24 00:01:26;;;;;;;13.00;3.30;;;;;;;5.65;76.68;101491.16;4994641;28;20030;-84
2023/02/24 00:03:55;;;;;;;13.68;4.13;;;;;;;5.72;76.64;101498.59;4963787;28;20034;-85
2023/02/24 00:06:34;;;;;;;11.88;3.50;;;;;;;5.73;76.50;101491.44;4991404;28;20026;-83
2023/02/24 00:09:07;;;;;;;7.28;2.97;;;;;;;5.80;76.52;101494.53;4996207;28;20034;-85
2023/02/24 00:11:33;;;;;;;12.13;3.50;;;;;;;5.79;76.34;101492.84;4982313;28;20068;-84
2023/02/24 00:13:59;;;;;;;8.65;2.92;;;;;;;5.77;76.36;101486.75;4986958;28;20117;-85
2023/02/24 00:16:25;;;;;;;9.37;3.27;;;;;;;5.82;76.40;101493.44;4986424;28;20045;-83
2023/02/24 00:18:53;;;;;;;11.90;3.30;;;;;;;5.85;76.78;101481.69;4962231;28;20046;-85
2023/02/24 00:21:19;;;;;;;8.35;3.30;;;;;;;5.82;77.04;101481.94;4966259;28;20041;-88
2023/02/24 00:23:45;;;;;;;14.30;3.90;;;;;;;5.86;76.82;101470.09;4973155;28;20054;-86
2023/02/24 00:26:11;;;;;;;;;;;;;;;5.90;76.94;101475.09;4990647;28;20034;-85
2023/02/24 00:28:38;;;;;;;;;;;;;;;5.85;77.11;101468.34;4985936;28;20372;-84
2023/02/24 00:31:13;;;;;;;10.32;3.20;;;;;;;5.79;77.33;101471.50;4988245;28;19917;-85
2023/02/24 00:33:40;;;;;;;9.10;3.33;;;;;;;5.84;77.08;101474.66;4987858;28;20081;-85
2023/02/24 00:36:32;;;;;;;11.57;3.17;;;;;;;5.78;77.08;101451.94;4962183;28;20415;-88
2023/02/24 00:39:09;;;;;;;8.90;2.95;;;;;;;5.78;77.15;101446.59;4985817;28;20129;-87
2023/02/24 00:41:43;;;;;;;11.65;3.58;;;;;;;5.88;77.10;101454.81;4989428;28;20038;-86
2023/02/24 00:44:13;;;;;;;12.15;3.10;;;;;;;5.81;76.85;101443.72;4956451;28;20050;-86
2023/02/24 00:46:46;;;;;;;8.50;3.08;;;;;;;5.84;76.65;101445.31;4962319;28;20451;-85
2023/02/24 00:49:17;;;;;;;9.43;3.15;;;;;;;5.89;76.20;101440.50;4985842;28;20063;-89
2023/02/24 00:51:53;;;;;;;13.32;3.20;;;;;;;5.76;76.03;101429.00;4962213;28;20038;-84
2023/02/24 00:54:24;;;;;;;10.52;3.58;;;;;;;5.85;75.98;101433.66;4992713;28;20034;-85
2023/02/24 00:56:49;;;;;;;12.88;3.25;;;;;;;5.80;76.24;101430.47;5020025;28;20034;-85
2023/02/24 00:59:17;;;;;;;14.38;3.83;;;;;;;5.67;76.58;101402.03;5007859;28;20129;-88
2023/02/24 01:01:44;;;;;;;6.57;2.97;;;;;;;5.76;77.04;101416.53;4974237;28;20065;-87
2023/02/24 01:04:12;;;;;;;12.02;3.35;;;;;;;5.60;76.91;101392.78;4973338;28;20030;-86
2023/02/24 01:06:42;;;;;;;10.65;2.85;;;;;;;5.78;76.59;101422.56;4974391;28;20046;-85
2023/02/24 01:09:12;;;;;;;10.50;3.75;;;;;;;5.76;76.88;101407.66;4987569;28;20065;-84
2023/02/24 01:14:25;;;;;;;7.05;3.03;;;;;;;5.61;77.22;101399.78;4969498;28;20056;-84
2023/02/24 01:16:51;;;;;;;7.93;3.08;;;;;;;5.56;77.51;101391.28;4971294;28;20134;-85
2023/02/24 01:19:22;;;;;;;15.23;3.60;;;;;;;5.62;77.56;101403.31;4988409;28;20129;-86
2023/02/24 01:21:53;;;;;;;9.38;3.00;;;;;;;5.59;77.65;101401.72;4988492;28;20045;-85
2023/02/24 01:24:22;;;;;;;13.65;3.65;;;;;;;5.57;78.08;101390.31;4971931;28;20597;-87
2023/02/24 01:26:51;;;;;;;10.65;3.25;;;;;;;5.53;78.39;101388.84;4989416;28;20133;-87
2023/02/24 01:29:17;;;;;;;8.90;3.22;;;;;;;5.52;78.55;101381.78;4953724;28;20039;-87
2023/02/24 01:31:45;;;;;;;10.95;3.40;;;;;;;5.50;78.72;101387.25;4973191;28;20129;-88
2023/02/24 01:34:12;;;;;;;11.15;3.20;;;;;;;5.44;79.09;101389.50;4969745;28;20444;-84
2023/02/24 01:36:41;;;;;;;8.68;3.20;;;;;;;5.25;79.57;101364.16;4988830;28;20069;-86
2023/02/24 01:39:09;;;;;;;11.27;3.00;;;;;;;5.34;79.90;101377.75;4956265;28;20049;-87
2023/02/24 01:41:40;;;;;;;10.52;3.05;;;;;;;5.25;79.95;101366.81;4973938;28;20088;-88
2023/02/24 01:44:12;;;;;;;12.98;3.50;;;;;;;5.36;79.65;101371.38;4967572;28;20439;-86
2023/02/24 01:46:40;;;;;;;8.25;3.25;;;;;;;5.29;79.39;101352.31;4992978;28;20049;-85
2023/02/24 01:49:13;;;;;;;10.98;3.20;;;;;;;5.28;79.54;101358.59;4969847;28;20031;-82
2023/02/24 01:51:42;;;;;;;8.18;3.15;;;;;;;5.23;79.71;101365.22;4969797;28;20129;-85
2023/02/24 01:54:11;;;;;;;9.50;2.95;;;;;;;5.25;80.08;101361.47;4968746;28;20045;-86
2023/02/24 01:56:37;;;;;;;11.23;3.40;;;;;;;5.24;79.74;101361.56;4979427;28;20030;-84
2023/02/24 01:59:11;;;;;;;12.35;3.70;;;;;;;5.17;80.24;101358.50;4958938;28;20038;-85
2023/02/24 02:01:41;;;;;;;12.57;3.30;;;;;;;5.11;80.80;101358.09;4980934;28;20066;-86
2023/02/24 02:04:25;;;;;;;8.48;3.25;;;;;;;5.31;80.37;101364.66;4978499;28;20038;-85
2023/02/24 02:06:51;;;;;;;10.35;4.00;;;;;;;5.25;80.40;101356.16;4975373;28;20050;-86
2023/02/24 02:09:18;;;;;;;8.95;3.55;;;;;;;5.14;80.79;101341.88;4964765;28;20074;-86
2023/02/24 02:11:48;;;;;;;13.00;3.53;;;;;;;5.15;80.89;101343.56;4950751;28;20074;-85
2023/02/24 02:14:22;;;;;;;12.77;3.72;;;;;;;5.11;80.61;101326.13;4965383;28;20045;-88
2023/02/24 02:17:15;;;;;;;11.57;3.55;;;;;;;5.25;80.48;101353.47;4976621;28;20034;-86
2023/02/24 02:20:06;;;;;;;14.40;2.97;;;;;;;5.28;80.17;101345.25;4958663;28;20157;-86
2023/02/24 02:22:44;;;;;;;11.43;3.60;;;;;;;5.31;80.00;101348.66;4972815;28;20542;-89
2023/02/24 02:25:46;;;;;;;12.23;3.28;;;;;;;5.22;80.67;101355.50;4992823;28;20486;-87
2023/02/24 02:28:34;;;;;;;9.63;3.20;;;;;;;5.16;80.96;101356.81;4984777;28;20034;-85
2023/02/24 02:31:17;;;;;;;13.10;3.30;;;;;;;5.19;80.83;101356.56;4971722;28;20089;-87
2023/02/24 02:34:04;;;;;;;10.38;3.65;;;;;;;5.12;81.22;101363.28;4997433;28;20030;-85
2023/02/24 02:36:49;;;;;;;12.23;3.28;;;;;;;5.18;81.29;101346.88;4987496;28;20087;-84
2023/02/24 02:39:38;;;;;;;8.45;3.40;;;;;;;5.11;81.35;101350.09;4980477;28;20042;-80
2023/02/24 02:42:36;;;;;;;13.35;3.78;;;;;;;5.15;81.37;101349.78;4990841;28;20041;-81
2023/02/24 02:45:10;;;;;;;14.25;3.80;;;;;;;5.07;81.32;101328.13;4959252;28;20112;-82
2023/02/24 02:48:03;;;;;;;13.77;3.85;;;;;;;4.94;82.05;101316.63;4938239;28;20504;-82
2023/02/24 02:50:34;;;;;;;12.32;3.55;;;;;;;5.09;81.58;101328.88;4972105;28;20049;-81
2023/02/24 02:53:05;;;;;;;12.00;3.63;;;;;;;5.14;81.57;101329.41;4994651;28;20104;-82
2023/02/24 02:55:54;;;;;;;10.43;3.58;;;;;;;5.18;81.49;101333.56;4962943;28;20031;-81
2023/02/24 02:58:22;;;;;;;9.73;3.60;;;;;;;5.06;81.52;101313.13;4957324;28;20093;-81
2023/02/24 03:01:03;;;;;;;13.48;4.32;;;;;;;5.14;81.17;101320.56;4961253;28;20049;-84
2023/02/24 03:03:41;;;;;;;11.48;3.45;;;;;;;5.14;81.32;101321.41;4959315;28;20066;-81
2023/02/24 03:06:11;;;;;;;11.43;4.25;;;;;;;5.06;81.06;101307.78;4972935;28;20125;-82
2023/02/24 03:08:38;;;;;;;11.05;3.85;;;;;;;5.12;80.93;101323.31;4955293;28;20050;-82
2023/02/24 03:11:09;;;;;;;12.27;3.88;;;;;;;5.06;81.00;101299.78;4961684;28;20047;-81
2023/02/24 03:13:42;;;;;;;12.90;3.63;;;;;;;5.06;80.88;101305.13;4966041;28;20525;-82
2023/02/24 03:16:10;;;;;;;10.70;3.45;;;;;;;5.18;80.92;101306.06;4964141;28;20045;-81
2023/02/24 03:18:43;;;;;;;12.70;3.70;;;;;;;5.14;80.98;101309.88;4993666;28;20137;-83
2023/02/24 03:21:18;;;;;;;15.40;3.72;;;;;;;5.10;81.11;101303.06;4946545;28;20037;-84
2023/02/24 03:23:49;;;;;;;8.23;3.30;;;;;;;5.11;80.70;101286.13;4965507;28;20060;-85
2023/02/24 03:26:27;;;;;;;10.38;3.50;;;;;;;5.13;80.51;101286.84;4979449;28;20073;-83
2023/02/24 03:29:22;;;;;;;10.75;3.60;;;;;;;5.05;80.83;101296.25;4970809;28;20034;-84
2023/02/24 03:31:53;;;;;;;11.45;3.33;;;;;;;4.97;81.01;101287.97;4992102;28;20054;-83
2023/02/24 03:34:30;;;;;;;16.13;3.50;;;;;;;4.95;80.96;101281.88;4989679;28;20038;-88
2023/02/24 03:36:58;;;;;;;9.85;3.30;;;;;;;4.96;80.63;101298.72;4962335;28;20025;-83
2023/02/24 03:39:24;;;;;;;12.95;3.38;;;;;;;4.93;80.65;101298.94;4977341;28;20030;-82
2023/02/24 03:42:00;;;;;;;10.07;3.20;;;;;;;4.98;80.87;101286.13;4977472;28;20038;-80
2023/02/24 03:44:27;;;;;;;14.48;3.95;;;;;;;4.84;80.95;101287.13;4987166;28;20030;-82
2023/02/24 03:46:54;;;;;;;11.65;3.60;;;;;;;4.76;81.36;101269.03;4961196;28;20034;-86
2023/02/24 03:49:20;;;;;;;9.55;3.00;;;;;;;4.62;81.56;101255.81;4980659;28;20030;-83
2023/02/24 03:52:24;;;;;;;11.85;3.17;;;;;;;4.94;81.02;101284.66;4961470;28;20042;-83
2023/02/24 03:55:05;;;;;;;14.93;3.38;;;;;;;4.97;80.64;101281.78;4992862;28;20116;-83
2023/02/24 03:57:53;;;;;;;10.77;3.53;;;;;;;4.91;81.08;101284.88;4978799;28;20081;-85
2023/02/24 04:00:33;;;;;;;13.93;3.88;;;;;;;4.92;80.58;101270.59;4980349;28;20037;-83
2023/02/24 04:03:10;;;;;;;13.15;3.47;;;;;;;4.94;80.65;101279.31;4967264;28;20052;-84
2023/02/24 04:05:51;;;;;;;9.18;3.40;;;;;;;4.74;80.39;101262.94;4986761;28;20049;-85
2023/02/24 04:08:19;;;;;;;15.55;3.97;;;;;;;4.79;80.70;101282.13;4971955;28;20034;-83
2023/02/24 04:10:52;;;;;;;9.63;3.58;;;;;;;4.85;81.00;101289.69;4971344;28;20117;-82
2023/02/24 04:13:23;;;;;;;10.38;3.50;;;;;;;4.85;80.61;101271.03;4987964;28;20064;-80
2023/02/24 04:15:57;;;;;;;10.40;3.72;;;;;;;4.92;80.61;101271.44;4969117;28;20181;-82
2023/02/24 04:18:28;;;;;;;11.40;3.50;;;;;;;4.94;80.36;101271.31;4975560;28;20478;-80
2023/02/24 04:20:58;;;;;;;13.00;3.50;;;;;;;4.83;80.69;101259.63;4954316;28;20068;-80
2023/02/24 04:23:33;;;;;;;10.60;3.78;;;;;;;4.90;80.54;101275.19;4956156;28;20084;-82
2023/02/24 04:26:02;;;;;;;12.30;3.70;;;;;;;4.79;81.12;101262.63;4975300;28;20054;-81
2023/02/24 04:28:29;;;;;;;9.60;3.92;;;;;;;4.85;81.11;101268.38;4952275;28;20043;-80
2023/02/24 04:30:58;;;;;;;12.27;4.03;;;;;;;4.88;80.87;101261.13;4955877;28;20137;-82
2023/02/24 04:33:24;;;;;;;8.93;4.28;;;;;;;4.95;80.93;101263.22;4986885;28;20064;-80
2023/02/24 04:35:52;;;;;;;9.15;4.32;;;;;;;4.97;80.70;101255.97;4986544;28;20518;-86
2023/02/24 04:38:26;;;;;;;10.18;4.05;;;;;;;4.93;80.72;101254.50;4960608;28;20040;-88
2023/02/24 04:40:53;;;;;;;12.38;3.80;;;;;;;4.93;80.93;101251.81;4957901;28;20053;-86
2023/02/24 04:43:19;;;;;;;12.35;4.07;;;;;;;4.88;80.67;101247.81;4971002;28;20121;-87
2023/02/24 04:45:44;;;;;;;11.67;4.30;;;;;;;4.89;80.76;101247.66;4969558;28;20205;-87
2023/02/24 04:48:12;;;;;;;19.38;4.57;;;;;;;4.97;80.86;101253.31;4952139;28;20285;-83
2023/02/24 04:50:40;;;;;;;8.75;3.90;;;;;;;4.90;80.91;101238.72;4983327;28;20046;-85
2023/02/24 04:53:11;;;;;;;9.88;4.43;;;;;;;5.02;80.37;101253.84;4947838;28;20036;-80
2023/02/24 04:55:39;;;;;;;10.63;3.92;;;;;;;5.09;80.45;101254.25;4982029;28;20057;-82
2023/02/24 04:58:18;;;;;;;14.68;4.60;;;;;;;5.04;80.26;101237.75;4985100;28;20555;-83
2023/02/24 05:00:46;;;;;;;16.17;4.30;;;;;;;5.01;79.97;101224.63;4959930;28;20051;-83
2023/02/24 05:03:12;;;;;;;11.23;4.18;;;;;;;5.13;80.41;101239.75;4977841;28;20482;-82
2023/02/24 05:05:51;;;;;;;12.50;3.97;;;;;;;5.10;80.24;101250.59;4957744;28;20035;-84
2023/02/24 05:08:18;;;;;;;10.13;3.92;;;;;;;5.04;80.70;101246.59;4978338;28;20291;-85
2023/02/24 05:10:45;;;;;;;10.38;3.95;;;;;;;5.06;80.18;101241.16;4947673;28;20116;-87
2023/02/24 05:13:25;;;;;;;9.90;4.13;;;;;;;5.27;79.94;101246.72;4973980;28;20034;-87
2023/02/24 05:15:56;;;;;;;10.90;4.35;;;;;;;5.27;79.40;101247.56;4980804;28;20023;-85
2023/02/24 05:18:24;;;;;;;10.88;4.38;;;;;;;5.27;78.99;101231.59;4963629;28;20236;-87
2023/02/24 05:23:42;;;;;;;10.65;4.65;;;;;;;5.57;78.29;101243.63;4973748;28;20084;-83
2023/02/24 05:26:10;;;;;;;13.75;5.80;;;;;;;5.68;77.98;101240.97;4990156;28;20191;-83
2023/02/24 05:28:40;;;;;;;13.48;5.30;;;;;;;5.71;77.85;101245.22;4989936;28;20054;-83
2023/02/24 05:31:07;;;;;;;13.95;4.63;;;;;;;5.69;77.42;101216.00;4946712;28;20030;-82
2023/02/24 05:33:34;;;;;;;14.85;4.78;;;;;;;6.00;76.88;101242.22;4985313;28;20073;-84
2023/02/24 05:36:07;;;;;;;10.50;5.00;;;;;;;6.13;76.56;101238.50;4989950;28;20530;-81
2023/02/24 05:38:36;;;;;;;10.93;4.63;;;;;;;6.19;75.89;101237.16;4964266;28;20019;-80
2023/02/24 05:41:16;;;;;;;11.50;4.57;;;;;;;6.33;75.47;101247.63;4956485;28;20038;-82
2023/02/24 05:43:53;;;;;;;8.65;3.97;;;;;;;6.38;74.85;101223.22;4967304;28;20038;-83
2023/02/24 05:46:31;;;;;;;10.70;3.85;;;;;;;6.43;74.39;101223.72;4956808;28;20034;-86
2023/02/24 05:49:02;;;;;;;11.70;3.95;;;;;;;6.51;74.26;101234.66;4964757;28;20161;-88
2023/02/24 05:51:34;;;;;;;18.23;4.20;;;;;;;6.67;73.25;101236.09;4991063;28;20442;-84
2023/02/24 05:54:09;;;;;;;9.35;3.65;;;;;;;6.91;72.86;101238.66;4971222;28;20108;-86
2023/02/24 05:56:42;;;;;;;13.30;3.65;;;;;;;7.01;72.03;101249.47;4972818;28;20445;-88
2023/02/24 05:59:11;;;;;;;15.60;3.78;;;;;;;7.18;71.98;101244.44;4965935;28;20506;-90
2023/02/24 06:01:40;;;;;;;11.07;3.70;;;;;;;7.15;72.29;101234.00;4948927;28;20060;-88
2023/02/24 06:07:23;;;;;;;10.05;3.13;;;;;;;7.76;69.49;101222.72;4951546;28;20035;-86
2023/02/24 06:09:55;;;;;;;11.30;3.40;;;;;;;8.73;66.74;101248.44;4992038;28;20378;-86
2023/02/24 06:12:38;;;;;;;9.57;3.50;;;;;;;8.72;65.49;101233.34;4992326;28;20541;-84
2023/02/24 06:15:07;;;;;;;10.85;3.40;;;;;;;9.22;64.22;101241.41;4973380;28;20030;-84
2023/02/24 06:17:33;;;;;;;10.60;3.35;;;;;;;9.28;63.93;101246.22;4953992;28;20057;-81
2023/02/24 06:20:14;;;;;;;12.95;3.50;;;;;;;9.05;64.11;101238.38;4985447;28;20030;-88
2023/02/24 06:22:41;;;;;;;11.35;3.60;;;;;;;8.98;64.77;101237.25;4960010;28;20058;-81
2023/02/24 06:25:08;;;;;;;10.63;3.75;;;;;;;8.90;65.08;101255.84;4968659;28;20089;-80
2023/02/24 06:27:37;;;;;;;9.73;3.40;;;;;;;8.91;65.04;101246.81;4957986;28;20038;-80
2023/02/24 06:30:09;;;;;;;13.65;3.50;;;;;;;8.81;65.51;101245.94;4973051;28;20034;-87
2023/02/24 06:32:38;;;;;;;7.40;3.53;;;;;;;8.77;65.79;101252.53;4974332;28;20113;-88
2023/02/24 06:35:04;;;;;;;14.20;3.50;;;;;;;8.70;66.16;101254.06;4990657;28;20038;-82
2023/02/24 06:37:29;;;;;;;10.98;4.18;;;;;;;8.77;65.99;101242.66;4974207;28;20037;-82
2023/02/24 06:39:57;;;;;;;9.65;3.17;;;;;;;8.33;67.70;101241.16;4973107;28;20061;-88
2023/02/24 06:42:29;;;;;;;13.68;4.03;;;;;;;8.55;67.51;101249.06;4957387;28;20086;-88
2023/02/24 06:44:56;;;;;;;10.55;3.50;;;;;;;8.66;67.10;101224.00;4969978;28;20118;-85
2023/02/24 06:47:25;;;;;;;10.30;3.58;;;;;;;9.24;65.26;101226.00;4975577;28;20065;-89
2023/02/24 06:49:52;;;;;;;10.38;3.42;;;;;;;9.69;63.35;101214.75;4979916;28;20043;-87
2023/02/24 06:52:18;;;;;;;9.23;3.20;;;;;;;10.20;62.08;101226.97;4988015;28;20153;-82
2023/02/24 06:54:58;;;;;;;8.73;3.50;;;;;;;10.83;60.61;101220.16;4972494;28;20027;-85
2023/02/24 06:57:27;;;;;;;11.40;3.63;;;;;;;11.34;59.08;101216.03;4945339;28;20096;-83
2023/02/24 06:59:54;;;;;;;9.55;3.80;;;;;;;11.90;56.89;101203.28;4983135;28;20497;-82
2023/02/24 07:02:28;;;;;;;8.95;3.33;;;;;;;11.88;56.24;101210.69;4960056;28;20034;-86
2023/02/24 07:04:57;;;;;;;9.27;3.33;;;;;;;11.48;57.67;101217.38;4985492;28;20097;-85
2023/02/24 07:07:23;;;;;;;12.18;3.88;;;;;;;11.50;57.25;101197.34;4959395;28;20118;-84
2023/02/24 07:09:50;;;;;;;9.30;3.50;;;;;;;11.28;57.76;101200.50;4972907;28;20041;-85
2023/02/24 07:12:19;;;;;;;9.23;3.80;;;;;;;10.96;59.27;101213.44;4974827;28;20356;-84
2023/02/24 07:14:49;;;;;;;7.93;3.67;;;;;;;10.98;59.21;101216.81;4963256;28;20132;-88
2023/02/24 07:17:17;;;;;;;10.10;3.58;;;;;;;10.68;59.79;101191.06;4966336;28;20039;-82
2023/02/24 07:19:44;;;;;;;11.80;3.70;;;;;;;10.39;61.64;101209.16;4994278;28;20038;-84
2023/02/24 07:22:14;;;;;;;8.60;3.65;;;;;;;10.31;61.36;101199.97;4980653;28;20102;-84
2023/02/24 07:24:44;;;;;;;11.82;4.20;;;;;;;9.83;62.74;101195.53;4983936;28;20085;-84
2023/02/24 07:27:20;;;;;;;12.10;3.78;;;;;;;10.12;62.70;101210.75;4979725;28;20038;-84
2023/02/24 07:29:46;;;;;;;11.05;4.03;;;;;;;9.69;64.13;101214.75;4982238;28;20038;-85
2023/02/24 07:32:13;;;;;;;12.55;4.07;;;;;;;9.37;65.38;101210.50;4989948;28;20097;-88
2023/02/24 07:34:39;;;;;;;9.60;3.92;;;;;;;9.43;65.02;101203.72;4998099;28;20034;-85
2023/02/24 07:37:12;;;;;;;12.93;4.80;;;;;;;9.52;65.56;101197.50;4986252;28;20038;-85
2023/02/24 07:39:58;;;;;;;10.68;4.30;;;;;;;9.35;65.50;101185.63;4978938;28;20026;-88
2023/02/24 07:42:24;;;;;;;11.10;4.45;;;;;;;9.22;66.52;101207.34;4981723;28;20439;-87
2023/02/24 07:44:50;;;;;;;13.95;4.53;;;;;;;9.13;66.76;101183.19;4969113;28;20042;-78
2023/02/24 07:47:17;;;;;;;11.65;3.85;;;;;;;9.50;65.49;101197.66;4974153;28;20033;-89
2023/02/24 07:49:45;;;;;;;14.13;4.85;;;;;;;9.57;65.29;101183.66;4972823;28;20035;-89
2023/02/24 07:52:14;;;;;;;13.55;4.78;;;;;;;9.62;64.99;101187.63;4967816;28;20046;-88
2023/02/24 07:54:42;;;;;;;14.32;5.15;;;;;;;9.74;64.65;101182.97;4993581;28;20085;-90
2023/02/24 07:57:12;;;;;;;12.50;4.32;;;;;;;9.97;64.06;101198.75;4970315;28;20035;-90
2023/02/24 07:59:39;;;;;;;10.73;4.68;;;;;;;9.69;64.28;101161.91;4972313;28;20125;-89
2023/02/24 08:02:12;;;;;;;10.85;4.32;;;;;;;9.79;64.26;101167.25;4990566;28;20061;-89
2023/02/24 08:04:47;;;;;;;9.63;4.80;;;;;;;9.98;63.57;101168.22;4974499;28;20050;-89
2023/02/24 08:07:13;;;;;;;12.35;4.80;;;;;;;9.88;64.11;101166.41;4967297;28;20077;-90
2023/02/24 08:12:41;;;;;;;11.85;4.63;;;;;;;10.85;61.26;101153.63;4974214;28;19924;-88
2023/02/24 08:18:58;;;;;;;8.73;3.58;;;;;;;11.57;58.34;101144.56;4959488;28;20062;-88
2023/02/24 08:21:31;;;;;;;9.18;4.00;;;;;;;11.98;57.15;101146.75;4979746;28;20034;-86
2023/02/24 08:24:01;;;;;;;6.90;3.70;;;;;;;11.84;56.91;101129.28;4936457;28;20090;-84
2023/02/24 08:26:43;;;;;;;11.07;3.90;;;;;;;11.49;58.13;101147.19;4951617;28;20050;-89
2023/02/24 08:29:29;;;;;;;13.10;4.03;;;;;;;11.75;57.57;101136.47;4953002;28;20138;-87
2023/02/24 08:32:15;;;;;;;9.77;3.83;;;;;;;12.16;56.93;101155.63;4970598;28;20035;-88
2023/02/24 08:34:48;;;;;;;9.02;3.92;;;;;;;12.10;56.29;101120.38;4952089;28;20504;-87
2023/02/24 08:37:34;;;;;;;;;;;;;;;;;;;;;
2023/02/24 08:40:10;;;;;;;13.32;4.00;;;;;;;12.64;55.82;101154.19;4934463;28;20046;-86
2023/02/24 08:43:18;;;;;;;9.38;3.60;;;;;;;12.88;54.46;101152.59;4955894;28;20445;-85
2023/02/24 08:46:17;;;;;;;12.95;3.97;;;;;;;13.77;51.54;101139.41;4965886;28;20038;-86
2023/02/24 08:48:54;;;;;;;11.45;3.40;;;;;;;13.92;50.77;101121.47;4944766;28;20054;-86
2023/02/24 08:51:54;;;;;;;7.53;3.60;;;;;;;14.24;49.93;101130.53;4978869;28;20096;-86
2023/02/24 08:54:46;;;;;;;12.07;4.13;;;;;;;14.27;50.21;101125.59;4953393;28;20042;-85
2023/02/24 08:57:50;;;;;;;9.77;4.20;;;;;;;14.21;50.23;101130.84;4973473;28;20081;-86
2023/02/24 09:01:02;;;;;;;7.40;3.22;;;;;;;14.68;48.56;101127.31;4973828;28;20053;-86
2023/02/24 09:03:44;;;;;;;13.38;3.97;;;;;;;14.99;47.33;101117.34;4954234;28;20513;-87
2023/02/24 09:06:27;;;;;;;;;;;;;;;;;;;;;
2023/02/24 09:09:22;;;;;;;14.95;3.47;;;;;;;15.68;45.56;101102.91;4966558;28;20038;-87
2023/02/24 09:12:31;;;;;;;9.93;3.97;;;;;;;15.97;45.19;101139.31;4949560;28;20042;-87
2023/02/24 09:15:24;;;;;;;9.38;4.18;;;;;;;15.77;45.77;101134.38;4959133;28;20159;-87
2023/02/24 09:18:06;;;;;;;11.52;3.97;;;;;;;15.71;45.26;101107.16;4964567;28;20042;-86
2023/02/24 09:20:55;;;;;;;8.27;3.70;;;;;;;15.40;46.11;101122.50;4961419;28;20053;-87
2023/02/24 09:23:44;;;;;;;11.13;4.32;;;;;;;14.66;47.25;101103.16;4973482;28;20450;-86
2023/02/24 09:26:16;;;;;;;10.10;4.15;;;;;;;14.45;48.57;101101.03;4959910;28;20050;-86
2023/02/24 09:28:59;;;;;;;12.40;4.40;;;;;;;13.81;49.86;101095.63;4988395;28;20093;-86
2023/02/24 09:32:03;;;;;;;9.35;3.15;;;;;;;13.34;50.83;101073.88;4989803;28;20042;-86
2023/02/24 09:34:44;;;;;;;11.73;3.88;;;;;;;13.34;51.56;101117.09;4976632;28;20501;-86
2023/02/24 09:37:32;;;;;;;12.13;5.43;;;;;;;13.32;51.26;101070.50;5002437;28;20042;-85
2023/02/24 09:43:39;;;;;;;9.45;3.25;;;;;;;13.61;50.81;101116.75;4980714;28;20038;-85
2023/02/24 09:46:13;;;;;;;8.95;3.35;;;;;;;12.91;52.39;101062.38;4973876;28;20031;-87
2023/02/24 09:49:04;;;;;;;13.02;4.20;;;;;;;13.43;51.69;101075.56;4967587;28;20044;-89
2023/02/24 09:51:43;;;;;;;9.73;4.28;;;;;;;13.71;50.71;101076.88;4970943;28;20046;-86
2023/02/24 10:04:26;;;;;;;12.25;4.07;;;;;;;13.24;52.54;101085.66;4970801;28;20057;-85
2023/02/24 10:07:28;;;;;;;10.40;3.67;;;;;;;12.83;53.71;101069.44;4969604;28;20035;-86
2023/02/24 10:10:18;;;;;;;8.52;3.85;;;;;;;12.87;53.73;101073.47;4983191;28;20127;-85
2023/02/24 10:13:29;;;;;;;11.70;3.78;;;;;;;12.77;53.98;101051.19;4976527;28;20038;-86
2023/02/24 10:16:04;;;;;;;9.43;3.25;;;;;;;12.91;52.47;101025.41;4975511;28;20037;-88
2023/02/24 10:18:31;;;;;;;7.50;3.45;;;;;;;13.54;51.40;101052.78;4972897;28;20106;-88
2023/02/24 10:21:47;;;;;;;11.23;4.10;;;;;;;13.48;51.57;101022.72;4990050;28;20056;-85
2023/02/24 10:24:46;;;;;;;10.07;3.47;;;;;;;14.62;48.85;101036.03;4962137;28;20051;-85
2023/02/24 10:28:00;;;;;;;10.27;4.13;;;;;;;15.28;46.51;101004.72;4985536;28;20057;-87
2023/02/24 10:30:41;;;;;;;10.27;3.85;;;;;;;15.93;45.02;100988.84;4922309;28;20149;-86
2023/02/24 10:33:25;;;;;;;11.77;3.78;;;;;;;15.87;44.97;100986.88;4974827;28;20576;-87
2023/02/24 10:36:38;;;;;;;9.73;3.70;;;;;;;15.50;46.06;100980.47;4996349;28;20040;-87
2023/02/24 10:39:32;;;;;;;12.95;3.80;;;;;;;16.65;43.54;100986.16;4998117;28;20033;-85
2023/02/24 10:42:21;;;;;;;10.13;3.10;;;;;;;16.13;44.15;100981.81;4980030;28;20142;-90
2023/02/24 10:44:51;;;;;;;7.43;3.45;;;;;;;16.82;43.60;101002.22;4976383;28;20508;-81
2023/02/24 10:48:08;;;;;;;13.48;4.30;;;;;;;16.74;42.96;100962.44;4991172;28;20038;-91
2023/02/24 10:51:30;;;;;;;11.48;3.40;;;;;;;16.50;44.00;100988.06;4918681;29;20516;-91
2023/02/24 10:55:04;;;;;;;11.27;3.13;;;;;;;16.53;43.20;100970.56;4918188;29;20063;-87
2023/02/24 10:57:45;;;;;;;8.93;3.28;;;;;;;17.13;42.30;100977.44;4915729;29;20429;-86
2023/02/24 11:03:13;;;;;;;9.85;3.42;;;;;;;19.67;37.58;100960.03;4953965;29;20041;-81
2023/02/24 11:11:28;;;;;;;8.63;3.42;;;;;;;20.17;36.18;100941.19;4943352;29;19925;-83
2023/02/24 11:20:10;;;;;;;15.55;4.25;;;;;;;15.45;45.75;100926.00;4958665;29;20061;-84
2023/02/24 11:22:44;;;;;;;9.43;4.05;;;;;;;14.61;48.21;100915.28;5001687;28;20161;-85
2023/02/24 11:25:21;;;;;;;12.65;3.70;;;;;;;14.14;49.71;100914.38;4981559;28;20046;-80
2023/02/24 11:27:51;;;;;;;14.02;3.80;;;;;;;13.67;51.38;100899.94;4987987;28;20049;-82
2023/02/24 11:30:42;;;;;;;9.23;3.30;;;;;;;13.27;52.72;100914.38;4977859;28;20038;-91
2023/02/24 11:33:43;;;;;;;14.50;5.07;;;;;;;12.92;54.29;100918.31;4988829;28;20038;-78
2023/02/24 11:36:40;;;;;;;15.27;5.18;;;;;;;13.04;54.54;100906.16;4976558;28;20056;-79
2023/02/24 11:39:28;;;;;;;14.30;4.20;;;;;;;14.28;51.22;100904.66;4971735;28;20046;-82
2023/02/24 11:41:55;;;;;;;14.95;3.97;;;;;;;14.52;50.75;100896.38;5002267;28;20034;-86
2023/02/24 11:44:27;;;;;;;11.32;4.10;;;;;;;14.84;49.50;100894.44;4986852;28;20041;-83
2023/02/24 11:46:56;;;;;;;11.43;4.05;;;;;;;13.77;51.93;100890.78;4975008;28;20100;-86
2023/02/24 11:49:41;;;;;;;14.40;5.20;;;;;;;14.33;50.45;100864.44;4958801;28;20045;-90
2023/02/24 11:52:21;;;;;;;17.45;5.30;;;;;;;14.08;51.34;100882.66;4975232;28;20108;-88
2023/02/24 11:54:49;;;;;;;12.98;4.43;;;;;;;13.24;53.31;100875.06;4975719;28;20050;-89
2023/02/24 11:57:25;;;;;;;10.90;4.28;;;;;;;13.28;53.53;100878.31;4974617;28;20049;-87
2023/02/24 12:00:04;;;;;;;13.48;5.10;;;;;;;13.15;54.03;100876.09;4959051;28;20520;-86
2023/02/24 12:02:32;;;;;;;12.43;5.43;;;;;;;13.53;53.56;100879.03;4975183;28;20214;-87
2023/02/24 12:05:22;;;;;;;11.80;4.65;;;;;;;13.71;52.32;100868.00;4987511;28;20026;-85
2023/02/24 12:08:09;;;;;;;16.30;5.88;;;;;;;13.47;52.73;100868.97;4956616;28;20045;-80
2023/02/24 12:10:40;;;;;;;15.07;5.90;;;;;;;13.40;53.09;100870.69;4975722;28;20034;-78
2023/02/24 12:13:34;;;;;;;14.57;5.28;;;;;;;13.30;53.31;100869.03;4970029;28;20038;-87
2023/02/24 12:16:06;;;;;;;12.48;5.22;;;;;;;13.04;53.88;100858.44;4985955;28;20053;-87
2023/02/24 12:18:58;;;;;;;14.82;5.47;;;;;;;13.38;53.62;100856.50;4941577;28;20346;-85
2023/02/24 12:21:34;;;;;;;9.15;4.20;;;;;;;12.80;54.13;100818.00;4986203;28;20071;-85
2023/02/24 12:24:01;;;;;;;13.57;4.15;;;;;;;12.56;55.70;100859.34;4966207;28;20038;-79
2023/02/24 12:26:41;;;;;;;14.10;4.50;;;;;;;12.25;56.07;100838.44;4989706;28;20227;-80
2023/02/24 12:29:41;;;;;;;12.85;3.88;;;;;;;12.08;57.06;100839.41;4966112;28;20031;-81
2023/02/24 12:32:41;;;;;;;12.73;4.75;;;;;;;12.00;57.40;100840.25;4980126;28;20390;-86
2023/02/24 12:35:10;;;;;;;12.85;4.80;;;;;;;12.11;56.90;100828.31;4989161;28;20023;-80
2023/02/24 12:37:56;;;;;;;14.25;4.70;;;;;;;12.02;57.85;100825.59;4971174;28;20402;-80
2023/02/24 12:40:29;;;;;;;11.95;4.00;;;;;;;11.36;59.04;100807.56;4961615;28;20066;-87
2023/02/24 12:43:33;;;;;;;11.68;4.20;;;;;;;12.07;57.69;100821.56;4981274;28;20054;-86
2023/02/24 12:46:18;;;;;;;15.50;4.43;;;;;;;11.86;57.86;100809.38;4973631;28;20034;-88
2023/02/24 12:49:08;;;;;;;10.10;4.07;;;;;;;12.50;56.36;100817.69;4954803;28;20031;-84
2023/02/24 12:51:48;;;;;;;15.73;4.72;;;;;;;12.22;57.27;100809.09;4988029;28;20026;-88
2023/02/24 12:54:23;;;;;;;11.25;4.53;;;;;;;12.15;57.50;100813.47;4988285;28;20449;-91